sensor_id;sensor_type;location;lat;lon;timestamp;P1;durP1;ratioP1;P2;durP2;ratioP2
19842;SDS011;10082;51.038;6.992;2023-02-23T00:00:52;72.78;;;60.75;;
19842;SDS011;10082;51.038;6.992;2023-02-23T00:03:19;59.13;;;52.70;;
19842;SDS011;10082;51.038;6.992;2023-02-23T00:05:46;62.08;;;55.13;;
19842;SDS011;10082;51.038;6.992;2023-02-23T00:08:13;77.03;;;59.90;;
19842;SDS011;10082;51.038;6.992;2023-02-23T00:10:41;61.03;;;54.38;;
19842;SDS011;10082;51.038;6.992;2023-02-23T00:13:08;65.22;;;57.55;;
19842;SDS011;10082;51.038;6.992;2023-02-23T00:15:36;69.47;;;59.00;;
19842;SDS011;10082;51.038;6.992;2023-02-23T00:18:04;67.60;;;58.80;;
19842;SDS011;10082;51.038;6.992;2023-02-23T00:20:33;71.45;;;60.15;;
19842;SDS011;10082;51.038;6.992;2023-02-23T00:23:00;74.00;;;59.85;;
19842;SDS011;10082;51.038;6.992;2023-02-23T00:25:28;64.70;;;56.60;;
19842;SDS011;10082;51.038;6.992;2023-02-23T00:27:58;65.97;;;56.90;;
19842;SDS011;10082;51.038;6.992;2023-02-23T00:30:25;67.65;;;59.55;;
19842;SDS011;10082;51.038;6.992;2023-02-23T00:32:52;62.92;;;56.10;;
19842;SDS011;10082;51.038;6.992;2023-02-23T00:35:19;64.35;;;57.35;;
19842;SDS011;10082;51.038;6.992;2023-02-23T00:37:49;67.60;;;60.03;;
19842;SDS011;10082;51.038;6.992;2023-02-23T00:40:16;66.55;;;59.15;;
19842;SDS011;10082;51.038;6.992;2023-02-23T00:42:47;63.38;;;55.75;;
19842;SDS011;10082;51.038;6.992;2023-02-23T00:45:18;66.53;;;57.08;;
19842;SDS011;10082;51.038;6.992;2023-02-23T00:47:44;65.85;;;58.47;;
19842;SDS011;10082;51.038;6.992;2023-02-23T00:50:13;72.32;;;58.70;;
19842;SDS011;10082;51.038;6.992;2023-02-23T00:52:42;75.47;;;60.83;;
19842;SDS011;10082;51.038;6.992;2023-02-23T00:55:10;66.00;;;58.25;;
19842;SDS011;10082;51.038;6.992;2023-02-23T00:57:39;84.82;;;67.15;;
19842;SDS011;10082;51.038;6.992;2023-02-23T01:00:07;73.47;;;61.30;;
19842;SDS011;10082;51.038;6.992;2023-02-23T01:02:46;70.35;;;60.67;;
19842;SDS011;10082;51.038;6.992;2023-02-23T01:05:13;67.10;;;59.80;;
19842;SDS011;10082;51.038;6.992;2023-02-23T01:07:41;64.07;;;57.08;;
19842;SDS011;10082;51.038;6.992;2023-02-23T01:10:10;77.78;;;64.07;;
19842;SDS011;10082;51.038;6.992;2023-02-23T01:12:46;80.95;;;66.05;;
19842;SDS011;10082;51.038;6.992;2023-02-23T01:15:14;70.40;;;61.85;;
19842;SDS011;10082;51.038;6.992;2023-02-23T01:17:42;74.38;;;63.22;;
19842;SDS011;10082;51.038;6.992;2023-02-23T01:20:12;73.80;;;61.78;;
19842;SDS011;10082;51.038;6.992;2023-02-23T01:22:42;82.78;;;66.10;;
19842;SDS011;10082;51.038;6.992;2023-02-23T01:25:11;71.72;;;60.85;;
19842;SDS011;10082;51.038;6.992;2023-02-23T01:27:39;77.55;;;63.33;;
19842;SDS011;10082;51.038;6.992;2023-02-23T01:30:12;75.38;;;63.05;;
19842;SDS011;10082;51.038;6.992;2023-02-23T01:32:42;76.88;;;65.10;;
19842;SDS011;10082;51.038;6.992;2023-02-23T01:35:10;81.05;;;66.30;;
19842;SDS011;10082;51.038;6.992;2023-02-23T01:37:40;75.32;;;63.25;;
19842;SDS011;10082;51.038;6.992;2023-02-23T01:40:09;68.88;;;60.85;;
19842;SDS011;10082;51.038;6.992;2023-02-23T01:42:40;69.90;;;59.38;;
19842;SDS011;10082;51.038;6.992;2023-02-23T01:45:20;84.13;;;68.20;;
19842;SDS011;10082;51.038;6.992;2023-02-23T01:47:51;85.75;;;67.00;;
19842;SDS011;10082;51.038;6.992;2023-02-23T01:50:22;90.22;;;69.95;;
19842;SDS011;10082;51.038;6.992;2023-02-23T01:52:52;83.32;;;67.75;;
19842;SDS011;10082;51.038;6.992;2023-02-23T01:58:24;101.90;;;74.07;;
19842;SDS011;10082;51.038;6.992;2023-02-23T02:00:54;88.60;;;70.70;;
19842;SDS011;10082;51.038;6.992;2023-02-23T02:03:28;85.88;;;69.32;;
19842;SDS011;10082;51.038;6.992;2023-02-23T02:06:00;76.35;;;63.10;;
19842;SDS011;10082;51.038;6.992;2023-02-23T02:08:29;72.30;;;64.38;;
19842;SDS011;10082;51.038;6.992;2023-02-23T02:10:58;76.70;;;65.10;;
19842;SDS011;10082;51.038;6.992;2023-02-23T02:13:32;73.70;;;63.10;;
19842;SDS011;10082;51.038;6.992;2023-02-23T02:19:01;76.75;;;64.70;;
19842;SDS011;10082;51.038;6.992;2023-02-23T02:21:51;76.45;;;64.78;;
19842;SDS011;10082;51.038;6.992;2023-02-23T02:24:49;78.43;;;65.30;;
19842;SDS011;10082;51.038;6.992;2023-02-23T02:28:04;100.20;;;70.45;;
19842;SDS011;10082;51.038;6.992;2023-02-23T02:31:12;74.03;;;63.25;;
19842;SDS011;10082;51.038;6.992;2023-02-23T02:37:31;73.05;;;64.03;;
19842;SDS011;10082;51.038;6.992;2023-02-23T02:40:08;79.68;;;66.05;;
19842;SDS011;10082;51.038;6.992;2023-02-23T02:42:48;74.22;;;63.72;;
19842;SDS011;10082;51.038;6.992;2023-02-23T02:45:27;74.90;;;64.97;;
19842;SDS011;10082;51.038;6.992;2023-02-23T02:48:04;71.43;;;63.30;;
19842;SDS011;10082;51.038;6.992;2023-02-23T02:50:40;67.70;;;60.13;;
19842;SDS011;10082;51.038;6.992;2023-02-23T02:53:17;67.72;;;60.05;;
19842;SDS011;10082;51.038;6.992;2023-02-23T02:55:52;69.88;;;61.47;;
19842;SDS011;10082;51.038;6.992;2023-02-23T02:58:24;71.22;;;62.72;;
19842;SDS011;10082;51.038;6.992;2023-02-23T03:00:51;72.28;;;64.22;;
19842;SDS011;10082;51.038;6.992;2023-02-23T03:03:36;68.15;;;60.47;;
19842;SDS011;10082;51.038;6.992;2023-02-23T03:06:24;70.22;;;61.85;;
19842;SDS011;10082;51.038;6.992;2023-02-23T03:09:18;73.55;;;62.88;;
19842;SDS011;10082;51.038;6.992;2023-02-23T03:12:10;72.45;;;62.53;;
19842;SDS011;10082;51.038;6.992;2023-02-23T03:15:10;72.43;;;63.58;;
19842;SDS011;10082;51.038;6.992;2023-02-23T03:18:06;74.60;;;65.28;;
19842;SDS011;10082;51.038;6.992;2023-02-23T03:20:59;73.88;;;63.25;;
19842;SDS011;10082;51.038;6.992;2023-02-23T03:23:52;72.72;;;63.00;;
19842;SDS011;10082;51.038;6.992;2023-02-23T03:26:49;78.10;;;66.18;;
19842;SDS011;10082;51.038;6.992;2023-02-23T03:29:40;70.60;;;61.90;;
19842;SDS011;10082;51.038;6.992;2023-02-23T03:32:36;73.60;;;63.30;;
19842;SDS011;10082;51.038;6.992;2023-02-23T03:35:31;71.63;;;63.60;;
19842;SDS011;10082;51.038;6.992;2023-02-23T03:38:26;76.90;;;66.72;;
19842;SDS011;10082;51.038;6.992;2023-02-23T03:41:16;75.90;;;66.35;;
19842;SDS011;10082;51.038;6.992;2023-02-23T03:44:05;76.28;;;66.13;;
19842;SDS011;10082;51.038;6.992;2023-02-23T03:46:53;75.93;;;66.40;;
19842;SDS011;10082;51.038;6.992;2023-02-23T03:49:40;71.65;;;63.05;;
19842;SDS011;10082;51.038;6.992;2023-02-23T03:52:27;79.38;;;67.63;;
19842;SDS011;10082;51.038;6.992;2023-02-23T03:55:17;80.28;;;67.95;;
19842;SDS011;10082;51.038;6.992;2023-02-23T03:58:08;81.45;;;67.85;;
19842;SDS011;10082;51.038;6.992;2023-02-23T04:00:58;75.18;;;65.75;;
19842;SDS011;10082;51.038;6.992;2023-02-23T04:03:46;76.82;;;66.53;;
19842;SDS011;10082;51.038;6.992;2023-02-23T04:06:35;73.80;;;65.65;;
19842;SDS011;10082;51.038;6.992;2023-02-23T04:09:23;75.22;;;64.78;;
19842;SDS011;10082;51.038;6.992;2023-02-23T04:12:08;82.60;;;68.78;;
19842;SDS011;10082;51.038;6.992;2023-02-23T04:14:56;75.20;;;66.97;;
19842;SDS011;10082;51.038;6.992;2023-02-23T04:17:30;75.55;;;67.32;;
19842;SDS011;10082;51.038;6.992;2023-02-23T04:19:57;75.13;;;64.07;;
19842;SDS011;10082;51.038;6.992;2023-02-23T04:22:24;76.72;;;67.55;;
19842;SDS011;10082;51.038;6.992;2023-02-23T04:24:51;73.32;;;65.28;;
19842;SDS011;10082;51.038;6.992;2023-02-23T04:27:19;75.07;;;66.88;;
19842;SDS011;10082;51.038;6.992;2023-02-23T04:29:46;84.10;;;69.25;;
19842;SDS011;10082;51.038;6.992;2023-02-23T04:32:14;76.70;;;66.18;;
19842;SDS011;10082;51.038;6.992;2023-02-23T04:34:44;75.95;;;65.78;;
19842;SDS011;10082;51.038;6.992;2023-02-23T04:37:11;81.10;;;67.47;;
19842;SDS011;10082;51.038;6.992;2023-02-23T04:39:38;76.72;;;68.18;;
19842;SDS011;10082;51.038;6.992;2023-02-23T04:42:06;75.80;;;67.57;;
19842;SDS011;10082;51.038;6.992;2023-02-23T04:44:34;79.28;;;69.10;;
19842;SDS011;10082;51.038;6.992;2023-02-23T04:47:01;73.70;;;65.70;;
19842;SDS011;10082;51.038;6.992;2023-02-23T04:49:28;74.63;;;65.97;;
19842;SDS011;10082;51.038;6.992;2023-02-23T04:51:57;87.88;;;71.85;;
19842;SDS011;10082;51.038;6.992;2023-02-23T04:54:24;79.97;;;67.32;;
19842;SDS011;10082;51.038;6.992;2023-02-23T04:56:51;90.32;;;72.82;;
19842;SDS011;10082;51.038;6.992;2023-02-23T04:59:19;83.45;;;69.57;;
19842;SDS011;10082;51.038;6.992;2023-02-23T05:01:45;92.90;;;71.85;;
19842;SDS011;10082;51.038;6.992;2023-02-23T05:04:12;104.43;;;73.75;;
19842;SDS011;10082;51.038;6.992;2023-02-23T05:06:40;93.75;;;72.55;;
19842;SDS011;10082;51.038;6.992;2023-02-23T05:09:09;88.53;;;71.28;;
19842;SDS011;10082;51.038;6.992;2023-02-23T05:11:36;89.50;;;73.68;;
19842;SDS011;10082;51.038;6.992;2023-02-23T05:14:03;87.40;;;70.10;;
19842;SDS011;10082;51.038;6.992;2023-02-23T05:16:30;101.38;;;73.75;;
19842;SDS011;10082;51.038;6.992;2023-02-23T05:18:57;87.40;;;70.95;;
19842;SDS011;10082;51.038;6.992;2023-02-23T05:21:24;89.35;;;70.80;;
19842;SDS011;10082;51.038;6.992;2023-02-23T05:23:51;90.65;;;70.43;;
19842;SDS011;10082;51.038;6.992;2023-02-23T05:26:20;88.25;;;71.20;;
19842;SDS011;10082;51.038;6.992;2023-02-23T05:28:47;91.00;;;68.82;;
19842;SDS011;10082;51.038;6.992;2023-02-23T05:31:14;91.80;;;72.30;;
19842;SDS011;10082;51.038;6.992;2023-02-23T05:33:42;88.57;;;69.85;;
19842;SDS011;10082;51.038;6.992;2023-02-23T05:36:10;89.47;;;69.80;;
19842;SDS011;10082;51.038;6.992;2023-02-23T05:38:38;86.55;;;69.30;;
19842;SDS011;10082;51.038;6.992;2023-02-23T05:41:05;100.05;;;72.40;;
19842;SDS011;10082;51.038;6.992;2023-02-23T05:43:34;89.55;;;70.75;;
19842;SDS011;10082;51.038;6.992;2023-02-23T05:46:04;94.90;;;71.68;;
19842;SDS011;10082;51.038;6.992;2023-02-23T05:48:32;98.32;;;70.22;;
19842;SDS011;10082;51.038;6.992;2023-02-23T05:51:00;88.93;;;70.50;;
19842;SDS011;10082;51.038;6.992;2023-02-23T05:53:29;97.85;;;71.30;;
19842;SDS011;10082;51.038;6.992;2023-02-23T05:55:57;95.78;;;71.13;;
19842;SDS011;10082;51.038;6.992;2023-02-23T05:58:25;96.78;;;72.25;;
19842;SDS011;10082;51.038;6.992;2023-02-23T06:00:53;95.25;;;71.97;;
19842;SDS011;10082;51.038;6.992;2023-02-23T06:03:26;94.85;;;71.50;;
19842;SDS011;10082;51.038;6.992;2023-02-23T06:05:54;96.32;;;71.88;;
19842;SDS011;10082;51.038;6.992;2023-02-23T06:08:23;97.88;;;72.03;;
19842;SDS011;10082;51.038;6.992;2023-02-23T06:10:50;96.57;;;71.55;;
19842;SDS011;10082;51.038;6.992;2023-02-23T06:13:17;94.18;;;71.15;;
19842;SDS011;10082;51.038;6.992;2023-02-23T06:15:45;101.88;;;74.00;;
19842;SDS011;10082;51.038;6.992;2023-02-23T06:18:15;98.78;;;74.38;;
19842;SDS011;10082;51.038;6.992;2023-02-23T06:20:43;99.50;;;72.53;;
19842;SDS011;10082;51.038;6.992;2023-02-23T06:23:11;95.85;;;69.88;;
19842;SDS011;10082;51.038;6.992;2023-02-23T06:25:39;101.47;;;74.30;;
19842;SDS011;10082;51.038;6.992;2023-02-23T06:28:07;95.88;;;72.65;;
19842;SDS011;10082;51.038;6.992;2023-02-23T06:30:35;106.53;;;75.00;;
19842;SDS011;10082;51.038;6.992;2023-02-23T06:33:03;95.22;;;72.85;;
19842;SDS011;10082;51.038;6.992;2023-02-23T06:35:32;96.32;;;71.45;;
19842;SDS011;10082;51.038;6.992;2023-02-23T06:38:01;98.40;;;73.00;;
19842;SDS011;10082;51.038;6.992;2023-02-23T06:40:28;95.57;;;70.13;;
19842;SDS011;10082;51.038;6.992;2023-02-23T06:42:55;93.70;;;69.90;;
19842;SDS011;10082;51.038;6.992;2023-02-23T06:45:23;92.15;;;71.13;;
19842;SDS011;10082;51.038;6.992;2023-02-23T06:47:50;96.95;;;72.15;;
19842;SDS011;10082;51.038;6.992;2023-02-23T06:50:18;92.57;;;67.53;;
19842;SDS011;10082;51.038;6.992;2023-02-23T06:52:47;91.63;;;70.60;;
19842;SDS011;10082;51.038;6.992;2023-02-23T06:55:14;91.47;;;68.78;;
19842;SDS011;10082;51.038;6.992;2023-02-23T06:57:41;91.07;;;69.75;;
19842;SDS011;10082;51.038;6.992;2023-02-23T07:00:09;91.93;;;70.55;;
19842;SDS011;10082;51.038;6.992;2023-02-23T07:02:39;89.20;;;68.00;;
19842;SDS011;10082;51.038;6.992;2023-02-23T07:05:06;86.18;;;67.20;;
19842;SDS011;10082;51.038;6.992;2023-02-23T07:07:34;88.30;;;68.60;;
19842;SDS011;10082;51.038;6.992;2023-02-23T07:10:03;87.50;;;67.60;;
19842;SDS011;10082;51.038;6.992;2023-02-23T07:12:30;89.88;;;68.03;;
19842;SDS011;10082;51.038;6.992;2023-02-23T07:14:57;92.25;;;68.55;;
19842;SDS011;10082;51.038;6.992;2023-02-23T07:17:24;87.63;;;65.60;;
19842;SDS011;10082;51.038;6.992;2023-02-23T07:19:51;87.60;;;65.40;;
19842;SDS011;10082;51.038;6.992;2023-02-23T07:22:18;84.30;;;66.57;;
19842;SDS011;10082;51.038;6.992;2023-02-23T07:24:46;85.35;;;64.85;;
19842;SDS011;10082;51.038;6.992;2023-02-23T07:27:15;92.68;;;65.00;;
19842;SDS011;10082;51.038;6.992;2023-02-23T07:29:42;89.07;;;65.03;;
19842;SDS011;10082;51.038;6.992;2023-02-23T07:32:09;94.00;;;65.90;;
19842;SDS011;10082;51.038;6.992;2023-02-23T07:34:37;88.22;;;64.13;;
19842;SDS011;10082;51.038;6.992;2023-02-23T07:37:04;85.38;;;63.88;;
19842;SDS011;10082;51.038;6.992;2023-02-23T07:39:31;96.80;;;66.20;;
19842;SDS011;10082;51.038;6.992;2023-02-23T07:41:58;117.20;;;71.68;;
19842;SDS011;10082;51.038;6.992;2023-02-23T07:44:27;96.63;;;68.55;;
19842;SDS011;10082;51.038;6.992;2023-02-23T07:46:55;88.32;;;66.97;;
19842;SDS011;10082;51.038;6.992;2023-02-23T07:49:22;95.63;;;66.93;;
19842;SDS011;10082;51.038;6.992;2023-02-23T07:51:49;86.25;;;63.63;;
19842;SDS011;10082;51.038;6.992;2023-02-23T07:54:16;89.40;;;66.70;;
19842;SDS011;10082;51.038;6.992;2023-02-23T07:56:43;88.28;;;65.93;;
19842;SDS011;10082;51.038;6.992;2023-02-23T07:59:10;90.18;;;64.30;;
19842;SDS011;10082;51.038;6.992;2023-02-23T08:01:40;88.35;;;65.60;;
19842;SDS011;10082;51.038;6.992;2023-02-23T08:04:06;94.63;;;67.03;;
19842;SDS011;10082;51.038;6.992;2023-02-23T08:06:34;89.45;;;64.93;;
19842;SDS011;10082;51.038;6.992;2023-02-23T08:09:01;89.95;;;64.95;;
19842;SDS011;10082;51.038;6.992;2023-02-23T08:11:29;93.88;;;67.10;;
19842;SDS011;10082;51.038;6.992;2023-02-23T08:13:56;95.90;;;66.82;;
19842;SDS011;10082;51.038;6.992;2023-02-23T08:16:25;93.60;;;66.45;;
19842;SDS011;10082;51.038;6.992;2023-02-23T08:18:54;91.90;;;65.20;;
19842;SDS011;10082;51.038;6.992;2023-02-23T08:21:23;87.13;;;64.90;;
19842;SDS011;10082;51.038;6.992;2023-02-23T08:23:50;87.68;;;66.00;;
19842;SDS011;10082;51.038;6.992;2023-02-23T08:26:17;91.82;;;64.65;;
19842;SDS011;10082;51.038;6.992;2023-02-23T08:28:44;86.80;;;65.47;;
19842;SDS011;10082;51.038;6.992;2023-02-23T08:31:13;86.45;;;64.78;;
19842;SDS011;10082;51.038;6.992;2023-02-23T08:33:43;81.65;;;61.83;;
19842;SDS011;10082;51.038;6.992;2023-02-23T08:36:11;82.90;;;63.22;;
19842;SDS011;10082;51.038;6.992;2023-02-23T08:38:38;78.72;;;62.75;;
19842;SDS011;10082;51.038;6.992;2023-02-23T08:41:05;81.82;;;62.15;;
19842;SDS011;10082;51.038;6.992;2023-02-23T08:43:32;79.10;;;60.42;;
19842;SDS011;10082;51.038;6.992;2023-02-23T08:45:59;75.78;;;60.33;;
19842;SDS011;10082;51.038;6.992;2023-02-23T08:48:26;74.78;;;57.35;;
19842;SDS011;10082;51.038;6.992;2023-02-23T08:50:54;79.38;;;59.80;;
19842;SDS011;10082;51.038;6.992;2023-02-23T08:53:27;82.25;;;60.45;;
19842;SDS011;10082;51.038;6.992;2023-02-23T08:55:56;75.97;;;59.03;;
19842;SDS011;10082;51.038;6.992;2023-02-23T08:58:24;72.45;;;58.40;;
19842;SDS011;10082;51.038;6.992;2023-02-23T09:00:51;73.78;;;56.47;;
19842;SDS011;10082;51.038;6.992;2023-02-23T09:03:18;71.10;;;56.10;;
19842;SDS011;10082;51.038;6.992;2023-02-23T09:05:45;79.97;;;57.90;;
19842;SDS011;10082;51.038;6.992;2023-02-23T09:08:12;70.68;;;56.90;;
19842;SDS011;10082;51.038;6.992;2023-02-23T09:10:41;69.75;;;55.92;;
19842;SDS011;10082;51.038;6.992;2023-02-23T09:13:09;66.68;;;55.30;;
19842;SDS011;10082;51.038;6.992;2023-02-23T09:15:36;74.15;;;56.80;;
19842;SDS011;10082;51.038;6.992;2023-02-23T09:18:04;67.80;;;56.58;;
19842;SDS011;10082;51.038;6.992;2023-02-23T09:20:32;66.25;;;54.38;;
19842;SDS011;10082;51.038;6.992;2023-02-23T09:22:59;67.75;;;54.83;;
19842;SDS011;10082;51.038;6.992;2023-02-23T09:25:26;64.45;;;53.60;;
19842;SDS011;10082;51.038;6.992;2023-02-23T09:27:57;63.33;;;53.97;;
19842;SDS011;10082;51.038;6.992;2023-02-23T09:30:27;62.33;;;53.00;;
19842;SDS011;10082;51.038;6.992;2023-02-23T09:32:54;62.45;;;51.60;;
19842;SDS011;10082;51.038;6.992;2023-02-23T09:35:22;58.03;;;49.40;;
19842;SDS011;10082;51.038;6.992;2023-02-23T09:37:50;58.70;;;49.72;;
19842;SDS011;10082;51.038;6.992;2023-02-23T09:40:20;53.65;;;47.75;;
19842;SDS011;10082;51.038;6.992;2023-02-23T09:42:51;54.85;;;48.75;;
19842;SDS011;10082;51.038;6.992;2023-02-23T09:45:28;53.28;;;47.53;;
19842;SDS011;10082;51.038;6.992;2023-02-23T09:50:50;49.83;;;44.53;;
19842;SDS011;10082;51.038;6.992;2023-02-23T09:53:30;53.70;;;47.90;;
19842;SDS011;10082;51.038;6.992;2023-02-23T09:56:02;59.08;;;49.92;;
19842;SDS011;10082;51.038;6.992;2023-02-23T09:58:36;54.33;;;48.42;;
19842;SDS011;10082;51.038;6.992;2023-02-23T10:01:26;53.17;;;47.45;;
19842;SDS011;10082;51.038;6.992;2023-02-23T10:04:07;50.33;;;45.00;;
19842;SDS011;10082;51.038;6.992;2023-02-23T10:06:42;53.80;;;48.20;;
19842;SDS011;10082;51.038;6.992;2023-02-23T10:09:15;50.85;;;45.42;;
19842;SDS011;10082;51.038;6.992;2023-02-23T10:11:49;51.00;;;45.83;;
19842;SDS011;10082;51.038;6.992;2023-02-23T10:14:28;50.10;;;44.67;;
19842;SDS011;10082;51.038;6.992;2023-02-23T10:17:13;49.80;;;44.50;;
19842;SDS011;10082;51.038;6.992;2023-02-23T10:19:52;49.20;;;43.88;;
19842;SDS011;10082;51.038;6.992;2023-02-23T10:22:26;50.65;;;45.05;;
19842;SDS011;10082;51.038;6.992;2023-02-23T10:24:54;51.20;;;45.67;;
19842;SDS011;10082;51.038;6.992;2023-02-23T10:27:28;53.92;;;47.83;;
19842;SDS011;10082;51.038;6.992;2023-02-23T10:29:59;53.78;;;47.08;;
19842;SDS011;10082;51.038;6.992;2023-02-23T10:32:31;54.97;;;46.53;;
19842;SDS011;10082;51.038;6.992;2023-02-23T10:35:04;53.33;;;47.60;;
19842;SDS011;10082;51.038;6.992;2023-02-23T10:37:36;52.03;;;44.95;;
19842;SDS011;10082;51.038;6.992;2023-02-23T10:40:04;49.40;;;43.97;;
19842;SDS011;10082;51.038;6.992;2023-02-23T10:42:37;52.17;;;43.92;;
19842;SDS011;10082;51.038;6.992;2023-02-23T10:45:10;52.53;;;43.58;;
19842;SDS011;10082;51.038;6.992;2023-02-23T10:47:43;49.83;;;44.42;;
19842;SDS011;10082;51.038;6.992;2023-02-23T10:50:12;49.65;;;43.85;;
19842;SDS011;10082;51.038;6.992;2023-02-23T10:52:40;57.90;;;46.35;;
19842;SDS011;10082;51.038;6.992;2023-02-23T10:55:19;48.55;;;42.20;;
19842;SDS011;10082;51.038;6.992;2023-02-23T10:57:49;51.30;;;44.05;;
19842;SDS011;10082;51.038;6.992;2023-02-23T11:00:28;49.25;;;40.67;;
19842;SDS011;10082;51.038;6.992;2023-02-23T11:02:58;50.03;;;42.30;;
19842;SDS011;10082;51.038;6.992;2023-02-23T11:05:34;47.97;;;41.45;;
19842;SDS011;10082;51.038;6.992;2023-02-23T11:08:09;48.80;;;40.42;;
19842;SDS011;10082;51.038;6.992;2023-02-23T11:10:53;49.28;;;40.50;;
19842;SDS011;10082;51.038;6.992;2023-02-23T11:13:22;48.85;;;41.17;;
19842;SDS011;10082;51.038;6.992;2023-02-23T11:15:58;45.60;;;39.83;;
19842;SDS011;10082;51.038;6.992;2023-02-23T11:18:27;44.40;;;38.90;;
19842;SDS011;10082;51.038;6.992;2023-02-23T11:20:54;44.47;;;37.63;;
19842;SDS011;10082;51.038;6.992;2023-02-23T11:23:22;41.15;;;35.92;;
19842;SDS011;10082;51.038;6.992;2023-02-23T11:25:53;40.00;;;34.88;;
19842;SDS011;10082;51.038;6.992;2023-02-23T11:28:25;38.88;;;34.53;;
19842;SDS011;10082;51.038;6.992;2023-02-23T11:30:59;39.97;;;34.20;;
19842;SDS011;10082;51.038;6.992;2023-02-23T11:33:30;45.75;;;36.58;;
19842;SDS011;10082;51.038;6.992;2023-02-23T11:36:12;45.25;;;35.55;;
19842;SDS011;10082;51.038;6.992;2023-02-23T11:38:41;44.20;;;33.17;;
19842;SDS011;10082;51.038;6.992;2023-02-23T11:41:18;46.67;;;33.78;;
19842;SDS011;10082;51.038;6.992;2023-02-23T11:43:47;47.75;;;34.10;;
19842;SDS011;10082;51.038;6.992;2023-02-23T11:46:17;47.72;;;34.25;;
19842;SDS011;10082;51.038;6.992;2023-02-23T11:48:47;47.25;;;34.55;;
19842;SDS011;10082;51.038;6.992;2023-02-23T11:51:22;47.40;;;35.05;;
19842;SDS011;10082;51.038;6.992;2023-02-23T11:53:54;45.70;;;34.38;;
19842;SDS011;10082;51.038;6.992;2023-02-23T11:56:23;46.40;;;34.00;;
19842;SDS011;10082;51.038;6.992;2023-02-23T11:58:52;47.15;;;34.92;;
19842;SDS011;10082;51.038;6.992;2023-02-23T12:01:33;52.33;;;35.00;;
19842;SDS011;10082;51.038;6.992;2023-02-23T12:04:05;57.03;;;38.10;;
19842;SDS011;10082;51.038;6.992;2023-02-23T12:06:34;51.55;;;35.70;;
19842;SDS011;10082;51.038;6.992;2023-02-23T12:09:04;53.22;;;36.15;;
19842;SDS011;10082;51.038;6.992;2023-02-23T12:11:48;55.55;;;37.97;;
19842;SDS011;10082;51.038;6.992;2023-02-23T12:14:23;57.58;;;39.35;;
19842;SDS011;10082;51.038;6.992;2023-02-23T12:16:57;55.60;;;38.42;;
19842;SDS011;10082;51.038;6.992;2023-02-23T12:19:30;53.75;;;37.25;;
19842;SDS011;10082;51.038;6.992;2023-02-23T12:22:03;56.63;;;39.38;;
19842;SDS011;10082;51.038;6.992;2023-02-23T12:24:39;55.55;;;36.90;;
19842;SDS011;10082;51.038;6.992;2023-02-23T12:27:11;57.40;;;38.03;;
19842;SDS011;10082;51.038;6.992;2023-02-23T12:29:44;58.33;;;39.10;;
19842;SDS011;10082;51.038;6.992;2023-02-23T12:32:27;55.53;;;37.63;;
19842;SDS011;10082;51.038;6.992;2023-02-23T12:35:01;54.80;;;37.35;;
19842;SDS011;10082;51.038;6.992;2023-02-23T12:37:37;50.17;;;34.38;;
19842;SDS011;10082;51.038;6.992;2023-02-23T12:40:13;48.63;;;33.38;;
19842;SDS011;10082;51.038;6.992;2023-02-23T12:42:49;43.72;;;32.35;;
19842;SDS011;10082;51.038;6.992;2023-02-23T12:45:23;43.38;;;30.10;;
19842;SDS011;10082;51.038;6.992;2023-02-23T12:47:58;38.28;;;27.27;;
19842;SDS011;10082;51.038;6.992;2023-02-23T12:50:32;36.75;;;26.95;;
19842;SDS011;10082;51.038;6.992;2023-02-23T12:53:04;42.42;;;28.98;;
19842;SDS011;10082;51.038;6.992;2023-02-23T12:55:40;40.75;;;28.63;;
19842;SDS011;10082;51.038;6.992;2023-02-23T12:58:16;39.20;;;28.98;;
19842;SDS011;10082;51.038;6.992;2023-02-23T13:00:50;40.95;;;27.80;;
19842;SDS011;10082;51.038;6.992;2023-02-23T13:06:34;38.15;;;27.20;;
19842;SDS011;10082;51.038;6.992;2023-02-23T13:09:12;36.53;;;25.83;;
19842;SDS011;10082;51.038;6.992;2023-02-23T13:11:56;36.90;;;26.60;;
19842;SDS011;10082;51.038;6.992;2023-02-23T13:14:33;38.00;;;26.83;;
19842;SDS011;10082;51.038;6.992;2023-02-23T13:17:10;39.45;;;26.83;;
19842;SDS011;10082;51.038;6.992;2023-02-23T13:19:52;41.80;;;28.30;;
19842;SDS011;10082;51.038;6.992;2023-02-23T13:22:27;39.90;;;26.92;;
19842;SDS011;10082;51.038;6.992;2023-02-23T13:24:59;38.20;;;26.83;;
19842;SDS011;10082;51.038;6.992;2023-02-23T13:27:29;35.85;;;24.38;;
19842;SDS011;10082;51.038;6.992;2023-02-23T13:30:02;32.67;;;23.15;;
19842;SDS011;10082;51.038;6.992;2023-02-23T13:32:31;30.88;;;21.95;;
19842;SDS011;10082;51.038;6.992;2023-02-23T13:35:02;32.63;;;22.40;;
19842;SDS011;10082;51.038;6.992;2023-02-23T13:37:34;28.58;;;21.10;;
19842;SDS011;10082;51.038;6.992;2023-02-23T13:40:14;27.55;;;21.27;;
19842;SDS011;10082;51.038;6.992;2023-02-23T13:42:52;27.70;;;20.42;;
19842;SDS011;10082;51.038;6.992;2023-02-23T13:45:39;28.27;;;21.05;;
19842;SDS011;10082;51.038;6.992;2023-02-23T13:48:23;28.17;;;20.00;;
19842;SDS011;10082;51.038;6.992;2023-02-23T13:51:01;27.63;;;20.95;;
19842;SDS011;10082;51.038;6.992;2023-02-23T13:53:35;26.20;;;18.95;;
19842;SDS011;10082;51.038;6.992;2023-02-23T13:56:05;29.02;;;20.77;;
19842;SDS011;10082;51.038;6.992;2023-02-23T13:58:34;25.33;;;18.38;;
19842;SDS011;10082;51.038;6.992;2023-02-23T14:01:13;26.67;;;19.63;;
19842;SDS011;10082;51.038;6.992;2023-02-23T14:03:44;27.70;;;19.67;;
19842;SDS011;10082;51.038;6.992;2023-02-23T14:06:18;23.88;;;19.27;;
19842;SDS011;10082;51.038;6.992;2023-02-23T14:08:53;25.60;;;19.98;;
19842;SDS011;10082;51.038;6.992;2023-02-23T14:14:14;25.23;;;18.75;;
19842;SDS011;10082;51.038;6.992;2023-02-23T14:17:10;23.98;;;18.48;;
19842;SDS011;10082;51.038;6.992;2023-02-23T14:20:23;23.35;;;17.50;;
19842;SDS011;10082;51.038;6.992;2023-02-23T14:23:13;21.27;;;17.20;;
19842;SDS011;10082;51.038;6.992;2023-02-23T14:31:57;19.27;;;15.50;;
19842;SDS011;10082;51.038;6.992;2023-02-23T14:34:47;19.70;;;15.30;;
19842;SDS011;10082;51.038;6.992;2023-02-23T14:37:17;17.42;;;13.68;;
19842;SDS011;10082;51.038;6.992;2023-02-23T14:39:49;19.15;;;15.40;;
19842;SDS011;10082;51.038;6.992;2023-02-23T14:42:21;19.85;;;15.35;;
19842;SDS011;10082;51.038;6.992;2023-02-23T14:44:51;22.85;;;17.58;;
19842;SDS011;10082;51.038;6.992;2023-02-23T14:47:20;31.15;;;24.13;;
19842;SDS011;10082;51.038;6.992;2023-02-23T14:49:52;29.05;;;23.00;;
19842;SDS011;10082;51.038;6.992;2023-02-23T14:52:23;29.08;;;22.58;;
19842;SDS011;10082;51.038;6.992;2023-02-23T14:55:03;26.30;;;22.17;;
19842;SDS011;10082;51.038;6.992;2023-02-23T14:57:35;24.88;;;20.73;;
19842;SDS011;10082;51.038;6.992;2023-02-23T15:00:07;26.55;;;21.10;;
19842;SDS011;10082;51.038;6.992;2023-02-23T15:02:52;26.20;;;20.55;;
19842;SDS011;10082;51.038;6.992;2023-02-23T15:05:21;24.67;;;21.35;;
19842;SDS011;10082;51.038;6.992;2023-02-23T15:07:50;25.55;;;21.17;;
19842;SDS011;10082;51.038;6.992;2023-02-23T15:10:21;24.85;;;20.75;;
19842;SDS011;10082;51.038;6.992;2023-02-23T15:12:54;25.42;;;21.48;;
19842;SDS011;10082;51.038;6.992;2023-02-23T15:15:23;28.02;;;22.23;;
19842;SDS011;10082;51.038;6.992;2023-02-23T15:17:53;24.70;;;19.98;;